Time;durP1;ratioP1;P1;durP2;ratioP2;P2;SDS_P1;SDS_P2;PMS_P1;PMS_P2;Temp;Humidity;BMP_temperature;BMP_pressure;BME280_temperature;BME280_humidity;BME280_pressure;Samples;Min_cycle;Max_cycle;Signal;HPM_P1;HPM_P2
2022/08/14 00:00:25;;;;;;;11.85;5.60;;;;;;;22.21;68.22;99207.80;1805127;79;21095;-74
2022/08/14 00:02:52;;;;;;;9.35;6.10;;;;;;;22.20;68.25;99208.77;1804856;79;21060;-74
2022/08/14 00:05:20;;;;;;;10.85;6.20;;;;;;;22.19;68.31;99212.45;1804886;79;20989;-74
2022/08/14 00:07:48;;;;;;;11.40;6.00;;;;;;;22.18;68.22;99209.41;1804615;79;21622;-75
2022/08/14 00:10:18;;;;;;;9.83;6.28;;;;;;;22.15;68.15;99204.30;1804626;79;22143;-74
2022/08/14 00:12:49;;;;;;;11.73;6.22;;;;;;;22.13;68.19;99208.12;1804681;79;21079;-74
2022/08/14 00:15:21;;;;;;;11.05;5.87;;;;;;;22.11;68.21;99210.94;1804463;79;21040;-74
2022/08/14 00:17:48;;;;;;;16.77;6.22;;;;;;;22.10;68.20;99217.26;1804883;79;21092;-74
2022/08/14 00:20:16;;;;;;;12.10;7.33;;;;;;;22.08;68.21;99208.52;1804667;79;21131;-74
2022/08/14 00:22:43;;;;;;;13.70;6.17;;;;;;;22.05;68.20;99208.78;1804979;79;21107;-74
2022/08/14 00:25:09;;;;;;;9.75;5.95;;;;;;;22.03;68.00;99213.43;1804431;79;21091;-74
2022/08/14 00:27:36;;;;;;;8.80;5.33;;;;;;;22.01;67.99;99210.88;1804621;79;21044;-74
2022/08/14 00:30:06;;;;;;;10.98;5.67;;;;;;;22.02;67.98;99210.38;1804917;79;20993;-74
2022/08/14 00:32:33;;;;;;;19.05;6.05;;;;;;;22.01;67.90;99210.88;1804745;79;21123;-74
2022/08/14 00:35:00;;;;;;;8.05;5.83;;;;;;;22.02;67.54;99211.72;1804949;79;21104;-74
2022/08/14 00:37:28;;;;;;;10.85;6.08;;;;;;;22.00;67.27;99202.98;1804664;79;21045;-74
2022/08/14 00:39:54;;;;;;;10.95;5.40;;;;;;;21.99;66.96;99211.52;1804653;79;22197;-74
2022/08/14 00:42:22;;;;;;;9.55;5.50;;;;;;;21.99;66.39;99206.63;1804640;79;20993;-74
2022/08/14 00:44:48;;;;;;;12.15;5.78;;;;;;;21.97;66.26;99211.27;1804980;79;21044;-74
2022/08/14 00:47:16;;;;;;;8.88;5.75;;;;;;;21.96;66.31;99210.44;1804685;79;21247;-73
2022/08/14 00:49:43;;;;;;;8.68;5.83;;;;;;;21.95;66.27;99207.39;1804563;79;21048;-74
2022/08/14 00:52:12;;;;;;;9.13;5.75;;;;;;;21.94;66.27;99206.17;1804919;79;21115;-74
2022/08/14 00:54:39;;;;;;;16.50;6.62;;;;;;;21.91;66.45;99207.31;1804395;79;20994;-74
2022/08/14 00:57:05;;;;;;;12.78;5.97;;;;;;;21.88;66.63;99203.05;1804931;79;20991;-74
2022/08/14 00:59:34;;;;;;;12.73;5.28;;;;;;;21.87;66.44;99205.39;1804634;79;21798;-73
2022/08/14 01:02:00;;;;;;;8.57;5.47;;;;;;;21.87;66.44;99202.71;1804658;79;21048;-74
2022/08/14 01:04:30;;;;;;;8.80;5.90;;;;;;;21.88;66.10;99199.03;1804513;79;21001;-75
2022/08/14 01:06:57;;;;;;;8.58;5.65;;;;;;;21.87;65.67;99205.86;1804725;79;21009;-74
2022/08/14 01:09:23;;;;;;;9.00;5.58;;;;;;;21.88;65.56;99200.87;1804961;79;21044;-74
2022/08/14 01:11:51;;;;;;;8.35;5.37;;;;;;;21.88;65.60;99200.37;1805619;79;21111;-73
2022/08/14 01:14:18;;;;;;;13.78;5.95;;;;;;;21.86;65.68;99195.65;1810667;79;21083;-73
2022/08/14 01:16:46;;;;;;;10.25;5.80;;;;;;;21.84;65.87;99204.31;1810699;79;21095;-74
2022/08/14 01:21:58;;;;;;;9.58;5.90;;;;;;;21.80;66.03;99204.20;1810389;79;21059;-73
2022/08/14 01:24:25;;;;;;;9.30;6.05;;;;;;;21.79;66.08;99203.03;1810750;79;21101;-74
2022/08/14 01:26:52;;;;;;;8.00;5.53;;;;;;;21.77;66.16;99208.52;1810362;79;20984;-74
2022/08/14 01:29:19;;;;;;;9.50;5.42;;;;;;;21.76;66.28;99204.12;1810480;79;20973;-74
2022/08/14 01:31:47;;;;;;;9.28;5.92;;;;;;;21.75;66.28;99204.25;1810549;79;21076;-74
2022/08/14 01:34:13;;;;;;;13.98;5.50;;;;;;;21.71;66.42;99203.17;1810671;79;21096;-74
2022/08/14 01:36:40;;;;;;;8.73;6.30;;;;;;;21.70;66.39;99204.64;1810831;79;21102;-75
2022/08/14 01:39:13;;;;;;;10.43;5.95;;;;;;;21.68;66.50;99202.59;1799868;79;21046;-74
2022/08/14 01:41:42;;;;;;;8.30;5.35;;;;;;;21.69;66.58;99202.96;1795081;79;21758;-74
2022/08/14 01:44:14;;;;;;;10.15;5.87;;;;;;;21.70;66.82;99207.32;1808816;79;21043;-74
2022/08/14 01:46:43;;;;;;;7.22;5.50;;;;;;;21.69;66.91;99201.63;1820600;78;20958;-74
2022/08/14 01:49:14;;;;;;;6.37;5.65;;;;;;;21.69;67.01;99201.63;1789714;80;21876;-74
2022/08/14 01:51:42;;;;;;;11.60;5.65;;;;;;;21.68;67.01;99206.61;1820725;78;21571;-74
2022/08/14 01:54:13;;;;;;;8.35;6.87;;;;;;;21.66;67.12;99208.58;1789939;80;21010;-74
2022/08/14 01:56:43;;;;;;;10.80;5.40;;;;;;;21.64;67.28;99205.19;1820204;78;21049;-74
2022/08/14 01:59:33;;;;;;;10.23;6.28;;;;;;;21.64;67.40;99213.22;1789814;80;21509;-74
2022/08/14 02:02:02;;;;;;;6.53;5.62;;;;;;;21.63;67.40;99207.50;1820751;78;21286;-75
2022/08/14 02:04:33;;;;;;;7.75;5.95;;;;;;;21.61;67.53;99205.45;1786222;80;21085;-74
2022/08/14 02:07:01;;;;;;;12.30;6.58;;;;;;;21.60;67.62;99203.73;1818307;78;21510;-75
2022/08/14 02:09:34;;;;;;;7.30;6.08;;;;;;;21.58;67.60;99208.38;1789952;80;21047;-74
2022/08/14 02:11:57;;;;;;;9.40;6.30;;;;;;;21.57;67.57;99206.67;1818462;78;21033;-75
2022/08/14 02:14:23;;;;;;;7.90;4.85;;;;;;;21.57;67.78;99207.55;1803843;79;21111;-74
2022/08/14 02:16:56;;;;;;;9.73;5.67;;;;;;;21.56;67.78;99206.33;1803920;79;21018;-74
2022/08/14 02:19:22;;;;;;;10.08;5.65;;;;;;;21.56;67.90;99203.16;1802430;79;21549;-74
2022/08/14 02:21:53;;;;;;;7.15;5.78;;;;;;;21.56;67.94;99202.31;1782121;79;21042;-74
2022/08/14 02:24:22;;;;;;;10.13;5.70;;;;;;;21.53;67.94;99200.73;1804102;78;21073;-73
2022/08/14 02:26:50;;;;;;;7.37;5.53;;;;;;;21.49;68.07;99200.16;1803937;79;21093;-74
2022/08/14 02:29:21;;;;;;;9.88;5.35;;;;;;;21.47;68.14;99207.47;1803969;79;21022;-74
2022/08/14 02:31:50;;;;;;;9.43;6.05;;;;;;;21.44;68.18;99209.03;1803849;79;20991;-75
2022/08/14 02:34:28;;;;;;;9.88;5.90;;;;;;;21.40;68.29;99208.95;1781486;79;21124;-74
2022/08/14 02:36:58;;;;;;;7.70;6.00;;;;;;;21.36;68.42;99202.14;1803418;79;21030;-74
2022/08/14 02:39:26;;;;;;;6.87;5.67;;;;;;;21.34;68.41;99209.45;1804516;79;21095;-73
2022/08/14 02:41:52;;;;;;;11.38;5.62;;;;;;;21.30;68.44;99200.84;1804035;79;21581;-74
2022/08/14 02:44:21;;;;;;;8.50;5.53;;;;;;;21.29;68.46;99207.66;1804021;79;21592;-74
2022/08/14 02:46:49;;;;;;;5.75;5.28;;;;;;;21.27;68.53;99209.62;1803618;78;21042;-75
2022/08/14 02:49:16;;;;;;;13.45;5.28;;;;;;;21.25;68.58;99207.53;1804063;78;20971;-74
2022/08/14 02:51:48;;;;;;;7.30;6.00;;;;;;;21.22;68.69;99203.81;1804106;79;21068;-75
2022/08/14 02:54:14;;;;;;;12.88;5.75;;;;;;;21.18;68.74;99206.36;1804176;79;21589;-74
2022/08/14 02:56:41;;;;;;;7.05;5.67;;;;;;;21.14;69.00;99207.95;1804036;79;21002;-74
2022/08/14 02:59:08;;;;;;;5.40;4.87;;;;;;;21.13;69.18;99210.28;1803892;78;21038;-74
2022/08/14 03:01:35;;;;;;;11.00;5.60;;;;;;;21.13;69.34;99206.73;1804068;79;20951;-74
2022/08/14 03:04:04;;;;;;;5.90;5.17;;;;;;;21.07;69.34;99205.94;1803953;79;21201;-74
2022/08/14 03:06:31;;;;;;;10.40;5.87;;;;;;;21.06;69.36;99209.58;1804371;79;21058;-74
2022/08/14 03:09:00;;;;;;;10.75;5.17;;;;;;;21.03;69.42;99209.36;1804161;78;20998;-75
2022/08/14 03:11:26;;;;;;;9.25;5.72;;;;;;;21.02;69.29;99212.16;1803918;78;21086;-75
2022/08/14 03:13:53;;;;;;;10.25;5.60;;;;;;;21.00;69.41;99206.06;1810752;78;20947;-75
2022/08/14 03:16:23;;;;;;;10.93;5.90;;;;;;;20.97;69.45;99205.34;1812929;79;21062;-74
2022/08/14 03:18:59;;;;;;;8.23;5.58;;;;;;;20.97;69.58;99204.51;1784354;80;21141;-75
2022/08/14 03:21:23;;;;;;;6.10;5.53;;;;;;;20.97;69.59;99204.51;1811424;79;21030;-74
2022/08/14 03:24:13;;;;;;;9.43;5.03;;;;;;;20.96;69.61;99208.14;1784162;80;21023;-76
2022/08/14 03:26:24;;;;;;;8.38;5.30;;;;;;;20.97;69.79;99204.51;1802417;79;21141;-74
2022/08/14 03:28:50;;;;;;;7.40;5.30;;;;;;;20.96;69.71;99199.66;1784160;80;21153;-74
2022/08/14 03:31:20;;;;;;;8.83;5.08;;;;;;;20.97;69.84;99202.67;1812904;79;20990;-73
2022/08/14 03:33:45;;;;;;;5.90;4.87;;;;;;;20.99;69.80;99209.23;1783986;80;20983;-74
2022/08/14 03:36:14;;;;;;;9.75;5.70;;;;;;;21.00;69.86;99206.93;1813004;79;21006;-74
2022/08/14 03:38:43;;;;;;;10.08;5.50;;;;;;;21.01;69.89;99213.12;1761476;80;21134;-74
2022/08/14 03:41:15;;;;;;;7.67;5.35;;;;;;;20.99;69.80;99210.57;1756987;81;21523;-74
2022/08/14 03:43:43;;;;;;;7.17;5.50;;;;;;;21.02;69.90;99204.97;1789419;79;21067;-74
2022/08/14 03:46:10;;;;;;;12.05;6.22;;;;;;;21.05;69.85;99212.75;1793861;79;21018;-74
2022/08/14 03:48:38;;;;;;;7.30;5.67;;;;;;;21.07;69.71;99216.13;1757493;81;21157;-74
2022/08/14 03:51:09;;;;;;;7.83;5.47;;;;;;;21.08;69.71;99207.15;1790395;79;21117;-74
2022/08/14 03:53:36;;;;;;;8.93;5.22;;;;;;;21.10;69.77;99214.55;1757818;81;21478;-74
2022/08/14 03:56:04;;;;;;;9.33;5.62;;;;;;;21.14;69.66;99212.46;1790385;80;21505;-74
2022/08/14 03:58:31;;;;;;;13.10;5.55;;;;;;;21.13;69.57;99214.30;1812741;78;21529;-74
2022/08/14 04:00:59;;;;;;;9.80;5.10;;;;;;;21.12;69.59;99216.60;1812670;79;21107;-74
2022/08/14 04:03:26;;;;;;;11.43;5.30;;;;;;;21.11;69.65;99210.04;1757855;81;21549;-74
2022/08/14 04:05:53;;;;;;;10.98;6.05;;;;;;;21.12;69.78;99211.25;1790359;80;21124;-75
2022/08/14 04:08:20;;;;;;;6.22;5.28;;;;;;;21.13;69.77;99204.94;1757798;81;21006;-74
2022/08/14 04:10:47;;;;;;;6.20;5.42;;;;;;;21.13;69.69;99208.95;1757888;81;20972;-74
2022/08/14 04:13:16;;;;;;;9.45;5.47;;;;;;;21.13;69.78;99202.27;1786345;80;22384;-74
2022/08/14 04:15:43;;;;;;;7.05;5.40;;;;;;;21.11;69.73;99200.17;1804182;79;21013;-74
2022/08/14 04:18:09;;;;;;;11.95;5.37;;;;;;;21.08;69.69;99193.77;1804049;79;21214;-74
2022/08/14 04:20:36;;;;;;;8.05;5.62;;;;;;;21.06;69.73;99190.35;1804451;79;21473;-75
2022/08/14 04:23:05;;;;;;;9.15;5.30;;;;;;;21.05;69.79;99186.00;1804053;78;21575;-74
2022/08/14 04:25:34;;;;;;;10.15;5.60;;;;;;;21.04;69.86;99193.65;1804002;79;21056;-74
2022/08/14 04:28:08;;;;;;;7.78;5.58;;;;;;;21.06;70.14;99190.84;1780146;80;21030;-74
2022/08/14 04:30:38;;;;;;;10.90;5.60;;;;;;;21.06;70.05;99187.67;1746591;81;21149;-74
2022/08/14 04:33:01;;;;;;;7.83;5.30;;;;;;;21.04;69.96;99186.13;1803554;79;21041;-74
2022/08/14 04:35:27;;;;;;;6.30;5.20;;;;;;;21.03;69.88;99195.11;1804074;79;21104;-74
2022/08/14 04:45:59;;;;;;;10.53;5.17;;;;;;;21.01;69.74;99189.89;1804228;79;21099;-74
2022/08/14 04:48:27;;;;;;;11.33;5.47;;;;;;;20.99;69.84;99187.84;1803919;79;21072;-74
2022/08/14 04:50:55;;;;;;;5.92;5.15;;;;;;;21.01;69.86;99189.05;1804543;79;21036;-74
2022/08/14 04:53:25;;;;;;;6.17;4.92;;;;;;;21.01;69.96;99184.54;1803993;79;21020;-74
2022/08/14 04:55:51;;;;;;;9.13;5.33;;;;;;;21.01;70.15;99193.90;1804529;79;21500;-74
2022/08/14 04:58:25;;;;;;;8.90;5.30;;;;;;;21.01;70.35;99192.56;1804166;78;21064;-74
2022/08/14 05:00:52;;;;;;;7.12;5.40;;;;;;;21.03;70.43;99195.98;1804365;78;21086;-74
2022/08/14 05:03:20;;;;;;;10.98;6.00;;;;;;;21.04;70.59;99200.34;1804147;79;20998;-74
2022/08/14 05:05:48;;;;;;;9.70;5.30;;;;;;;21.05;70.48;99199.38;1804411;79;21543;-74
2022/08/14 05:08:15;;;;;;;7.62;5.28;;;;;;;21.08;70.49;99199.13;1803942;79;21178;-74
2022/08/14 05:10:50;;;;;;;7.05;5.10;;;;;;;21.12;70.51;99203.23;1803965;79;21045;-75
2022/08/14 05:13:15;;;;;;;8.05;5.22;;;;;;;21.13;70.50;99204.94;1803763;79;21064;-75
2022/08/14 05:15:43;;;;;;;9.78;6.10;;;;;;;21.17;70.49;99202.01;1804090;79;21032;-74
2022/08/14 05:18:22;;;;;;;11.50;5.50;;;;;;;21.18;70.46;99192.98;1803880;79;21116;-74
2022/08/14 05:20:51;;;;;;;6.75;5.35;;;;;;;21.20;70.76;99200.39;1803961;79;21538;-75
2022/08/14 05:23:22;;;;;;;9.98;5.47;;;;;;;21.22;70.73;99191.77;1804074;79;21072;-75
2022/08/14 05:25:53;;;;;;;11.48;5.80;;;;;;;21.27;70.94;99201.59;1803554;79;21088;-75
2022/08/14 05:28:25;;;;;;;10.60;5.00;;;;;;;21.31;70.80;99203.02;1804292;78;20989;-75
2022/08/14 05:30:57;;;;;;;10.53;5.25;;;;;;;21.36;70.68;99198.63;1804195;78;21038;-73
2022/08/14 05:33:27;;;;;;;9.30;5.40;;;;;;;21.40;70.72;99196.91;1804026;78;21102;-75
2022/08/14 05:36:01;;;;;;;6.90;5.70;;;;;;;21.47;70.86;99199.94;1803956;79;20977;-75
2022/08/14 05:38:36;;;;;;;9.85;5.67;;;;;;;21.51;70.74;99198.19;1803552;79;21578;-74
2022/08/14 05:41:08;;;;;;;7.35;6.10;;;;;;;21.56;70.35;99202.31;1776266;79;21110;-74
2022/08/14 05:43:35;;;;;;;5.97;5.35;;;;;;;21.61;70.37;99194.73;1803117;79;21027;-74
2022/08/14 05:46:01;;;;;;;8.73;6.22;;;;;;;21.65;70.18;99196.16;1802974;79;21585;-74
2022/08/14 05:48:28;;;;;;;7.83;5.08;;;;;;;21.67;69.96;99195.06;1803172;79;21126;-74
2022/08/14 05:50:55;;;;;;;8.78;5.05;;;;;;;21.71;69.82;99201.83;1802962;79;21023;-74
2022/08/14 05:53:23;;;;;;;7.03;5.08;;;;;;;21.76;70.13;99197.93;1803433;79;21031;-74
2022/08/14 05:55:50;;;;;;;10.78;5.67;;;;;;;21.80;70.03;99192.16;1803141;79;21035;-74
2022/08/14 05:58:17;;;;;;;8.05;5.67;;;;;;;21.84;70.13;99190.92;1803454;79;21099;-75
2022/08/14 06:00:45;;;;;;;6.75;5.33;;;;;;;21.88;70.02;99193.68;1802939;79;21082;-74
2022/08/14 06:03:15;;;;;;;7.20;5.10;;;;;;;21.93;69.99;99191.11;1803545;79;21042;-74
2022/08/14 06:05:44;;;;;;;9.40;5.58;;;;;;;21.95;69.81;99185.95;1803186;79;20984;-74
2022/08/14 06:08:27;;;;;;;10.32;5.58;;;;;;;21.97;69.30;99193.86;1803243;79;20984;-76
2022/08/14 06:11:01;;;;;;;7.65;5.37;;;;;;;21.98;69.46;99192.89;1803224;79;21078;-74
2022/08/14 06:13:30;;;;;;;9.75;5.50;;;;;;;21.99;69.79;99187.88;1773224;80;21035;-75
2022/08/14 06:15:56;;;;;;;8.53;5.30;;;;;;;22.03;69.98;99182.62;1741144;82;22147;-74
2022/08/14 06:18:23;;;;;;;6.90;5.12;;;;;;;22.05;69.84;99175.29;1803138;79;21035;-74
2022/08/14 06:20:50;;;;;;;9.93;5.72;;;;;;;22.11;70.07;99182.80;1803490;79;21047;-74
2022/08/14 06:23:16;;;;;;;5.90;4.78;;;;;;;22.15;69.90;99177.52;1802972;79;21111;-75
2022/08/14 06:25:46;;;;;;;7.30;5.30;;;;;;;22.19;69.48;99174.94;1802924;79;20969;-75
2022/08/14 06:28:21;;;;;;;8.00;5.75;;;;;;;22.23;69.43;99176.84;1803422;79;21156;-74
2022/08/14 06:30:48;;;;;;;11.18;6.05;;;;;;;22.24;69.46;99177.19;1802509;79;21011;-74
2022/08/14 06:33:16;;;;;;;12.00;5.87;;;;;;;22.23;68.94;99173.66;1803383;79;21008;-75
2022/08/14 06:35:43;;;;;;;9.28;5.42;;;;;;;22.25;69.03;99178.39;1802967;79;21152;-76
2022/08/14 06:38:21;;;;;;;6.45;5.00;;;;;;;22.29;69.16;99183.52;1802935;79;21134;-74
2022/08/14 06:40:48;;;;;;;14.15;5.42;;;;;;;22.34;69.36;99181.27;1803479;79;21003;-74
2022/08/14 06:43:15;;;;;;;6.90;5.37;;;;;;;22.38;69.11;99182.71;1803073;79;20972;-74
2022/08/14 06:45:43;;;;;;;6.03;5.50;;;;;;;22.44;69.05;99186.16;1803705;79;21042;-74
2022/08/14 06:48:19;;;;;;;6.62;5.25;;;;;;;22.48;69.57;99184.92;1803139;79;22766;-74
2022/08/14 06:50:45;;;;;;;11.15;6.03;;;;;;;22.54;69.47;99188.88;1803508;79;21047;-75
2022/08/14 06:53:13;;;;;;;7.62;5.47;;;;;;;22.58;69.50;99188.47;1803511;79;21510;-75
2022/08/14 06:55:41;;;;;;;6.78;5.35;;;;;;;22.66;69.16;99184.23;1803694;79;21044;-74
2022/08/14 06:58:12;;;;;;;6.35;5.45;;;;;;;22.70;69.02;99189.70;1803105;79;21090;-74
2022/08/14 07:00:39;;;;;;;10.55;5.47;;;;;;;22.75;69.04;99187.45;1803343;79;21115;-76
2022/08/14 07:05:50;;;;;;;10.63;5.62;;;;;;;22.81;68.91;99193.10;1803321;79;21609;-74
2022/08/14 07:08:25;;;;;;;5.97;5.37;;;;;;;22.84;68.65;99191.13;1803292;79;21031;-74
2022/08/14 07:10:53;;;;;;;10.08;6.22;;;;;;;22.86;68.55;99193.16;1803358;79;21123;-74
2022/08/14 07:13:21;;;;;;;7.55;5.67;;;;;;;22.87;69.07;99189.00;1803478;79;21945;-74
2022/08/14 07:15:53;;;;;;;8.65;5.83;;;;;;;22.90;69.15;99188.73;1803262;79;20968;-74
2022/08/14 07:18:23;;;;;;;15.63;6.03;;;;;;;22.92;69.25;99196.13;1802264;79;20968;-74
2022/08/14 07:20:49;;;;;;;7.50;5.58;;;;;;;22.94;69.32;99186.10;1803076;79;21031;-74
2022/08/14 07:23:16;;;;;;;8.03;5.55;;;;;;;22.99;68.92;99188.38;1803115;79;21058;-75
2022/08/14 07:25:44;;;;;;;8.63;5.90;;;;;;;23.03;68.63;99190.27;1803728;79;21066;-74
2022/08/14 07:28:27;;;;;;;6.95;5.35;;;;;;;23.06;68.14;99188.19;1803060;79;21016;-74
2022/08/14 07:30:59;;;;;;;7.10;5.60;;;;;;;23.14;68.93;99185.65;1803362;79;21149;-75
2022/08/14 07:33:27;;;;;;;8.53;5.33;;;;;;;23.23;68.60;99194.67;1803514;79;21101;-74
2022/08/14 07:36:00;;;;;;;12.13;5.30;;;;;;;23.31;68.16;99189.45;1803184;79;21031;-74
2022/08/14 07:38:27;;;;;;;11.30;5.17;;;;;;;23.36;67.65;99192.55;1803310;79;21140;-74
2022/08/14 07:40:53;;;;;;;5.70;5.20;;;;;;;23.43;67.17;99190.14;1803327;79;20960;-75
2022/08/14 07:43:21;;;;;;;9.95;5.67;;;;;;;23.47;66.60;99184.85;1813171;78;20973;-75
2022/08/14 07:45:47;;;;;;;9.65;5.40;;;;;;;23.53;67.01;99193.66;1820735;78;21029;-74
2022/08/14 07:48:14;;;;;;;7.90;5.65;;;;;;;23.60;66.78;99184.52;1810353;78;21416;-74
2022/08/14 07:50:40;;;;;;;11.95;5.87;;;;;;;23.69;67.09;99181.49;1748966;82;21702;-74
2022/08/14 07:53:07;;;;;;;10.20;5.67;;;;;;;23.82;68.30;99182.53;1747007;81;21654;-74
2022/08/14 07:55:35;;;;;;;9.30;5.62;;;;;;;23.97;67.75;99185.08;1779570;80;21611;-75
2022/08/14 07:58:01;;;;;;;6.67;5.97;;;;;;;24.17;67.91;99179.64;1815627;79;20997;-74
2022/08/14 08:00:28;;;;;;;10.28;5.85;;;;;;;24.35;67.18;99179.20;1815326;78;21082;-74
2022/08/14 08:02:54;;;;;;;12.70;5.58;;;;;;;24.55;66.70;99184.51;1815221;79;21073;-74
2022/08/14 08:05:23;;;;;;;6.83;5.12;;;;;;;24.69;67.09;99182.62;1815154;79;21087;-74
2022/08/14 08:07:52;;;;;;;7.80;5.20;;;;;;;24.83;66.75;99182.12;1815321;78;21021;-74
2022/08/14 08:10:32;;;;;;;5.30;4.72;;;;;;;24.94;65.09;99175.65;1815072;79;21052;-73
2022/08/14 08:13:09;;;;;;;7.87;5.03;;;;;;;25.06;64.01;99173.56;1815176;79;21110;-73
2022/08/14 08:15:46;;;;;;;5.50;5.08;;;;;;;25.19;63.69;99178.06;1815169;78;21532;-75
2022/08/14 08:18:14;;;;;;;9.73;5.33;;;;;;;25.34;63.26;99178.89;1814835;79;21037;-74
2022/08/14 08:20:46;;;;;;;10.95;5.42;;;;;;;25.49;62.94;99178.67;1815560;79;21064;-74
2022/08/14 08:23:15;;;;;;;7.22;4.90;;;;;;;25.61;62.71;99169.83;1815094;79;22313;-74
2022/08/14 08:25:45;;;;;;;6.78;5.08;;;;;;;25.75;61.84;99173.78;1815288;79;21080;-74
2022/08/14 08:28:17;;;;;;;5.47;4.97;;;;;;;25.88;61.45;99182.28;1815059;78;21951;-73
2022/08/14 08:30:58;;;;;;;7.55;4.90;;;;;;;26.01;60.58;99178.33;1815048;79;21484;-75
2022/08/14 08:33:28;;;;;;;6.15;4.80;;;;;;;26.11;61.37;99173.17;1814539;78;21503;-74
2022/08/14 08:35:59;;;;;;;6.22;5.22;;;;;;;26.21;60.41;99169.01;1814332;79;21414;-74
2022/08/14 08:38:27;;;;;;;7.62;4.72;;;;;;;26.24;59.33;99164.64;1814918;79;21349;-75
2022/08/14 08:40:55;;;;;;;9.60;5.00;;;;;;;26.28;59.20;99166.51;1815565;78;21158;-74
2022/08/14 08:43:29;;;;;;;6.22;4.85;;;;;;;26.27;58.52;99167.50;1814813;79;21095;-74
2022/08/14 08:46:02;;;;;;;9.43;4.60;;;;;;;26.25;57.34;99169.02;1815519;79;20947;-74
2022/08/14 08:48:30;;;;;;;11.20;5.08;;;;;;;26.29;56.35;99160.09;1815393;79;21792;-75
2022/08/14 08:50:58;;;;;;;4.95;4.50;;;;;;;26.37;58.01;99156.59;1815325;78;21103;-75
2022/08/14 08:53:33;;;;;;;5.12;4.55;;;;;;;26.48;58.04;99159.83;1815495;78;21130;-74
2022/08/14 08:55:59;;;;;;;9.43;5.05;;;;;;;26.59;57.63;99155.96;1815128;79;27305;-74
2022/08/14 08:58:26;;;;;;;6.22;4.80;;;;;;;26.74;58.89;99154.02;1815620;78;21075;-74
2022/08/14 09:00:55;;;;;;;6.45;4.60;;;;;;;26.89;58.18;99148.30;1815016;79;21069;-74
2022/08/14 09:03:25;;;;;;;7.72;4.35;;;;;;;27.02;56.52;99148.64;1815336;79;21016;-74
2022/08/14 09:06:02;;;;;;;5.15;4.58;;;;;;;27.15;56.14;99152.20;1815492;79;21118;-74
2022/08/14 09:08:32;;;;;;;6.28;4.83;;;;;;;27.25;55.85;99143.42;1814903;79;21059;-74
2022/08/14 09:11:02;;;;;;;8.53;4.20;;;;;;;27.34;55.55;99151.03;1815241;79;21056;-74
2022/08/14 09:13:30;;;;;;;8.45;4.55;;;;;;;27.37;54.60;99150.70;1814968;78;21527;-74
2022/08/14 09:15:57;;;;;;;6.62;4.40;;;;;;;27.41;54.42;99150.67;1815002;79;21084;-74
2022/08/14 09:18:26;;;;;;;10.60;4.75;;;;;;;27.50;54.33;99137.99;1815028;79;21512;-74
2022/08/14 09:20:55;;;;;;;9.38;4.17;;;;;;;27.61;54.60;99136.81;1815140;79;20973;-75
2022/08/14 09:23:21;;;;;;;9.80;4.50;;;;;;;27.76;55.51;99136.43;1814966;79;20972;-75
2022/08/14 09:25:50;;;;;;;7.58;4.47;;;;;;;27.91;55.00;99137.91;1815150;79;21056;-74
2022/08/14 09:28:18;;;;;;;6.22;4.20;;;;;;;28.05;54.90;99129.60;1815218;79;21083;-74
2022/08/14 09:30:53;;;;;;;5.80;3.95;;;;;;;28.16;53.50;99126.52;1815252;78;21149;-75
2022/08/14 09:33:33;;;;;;;9.98;4.87;;;;;;;28.25;53.12;99127.31;1815431;78;20998;-74
2022/08/14 09:36:30;;;;;;;6.58;3.83;;;;;;;28.33;53.29;99127.80;1815231;78;21017;-75
2022/08/14 09:39:10;;;;;;;10.70;4.28;;;;;;;28.45;54.34;99125.01;1739782;82;21124;-75
2022/08/14 09:42:00;;;;;;;9.30;4.58;;;;;;;28.61;53.37;99123.25;1794447;79;21611;-74
2022/08/14 09:44:44;;;;;;;8.40;4.00;;;;;;;28.70;51.72;99133.84;1782251;79;21180;-74
2022/08/14 09:47:11;;;;;;;12.85;4.45;;;;;;;28.75;51.58;99126.55;1771378;81;21082;-74
2022/08/14 09:49:38;;;;;;;7.05;4.40;;;;;;;28.80;50.52;99129.56;1741665;81;21057;-74
2022/08/14 09:52:13;;;;;;;6.37;3.92;;;;;;;28.84;51.19;99128.16;1771406;81;21013;-74
2022/08/14 09:54:46;;;;;;;5.10;3.77;;;;;;;28.89;50.56;99131.17;1771576;80;21064;-74
2022/08/14 09:57:27;;;;;;;7.40;3.70;;;;;;;28.96;51.43;99127.75;1771569;81;21934;-75
2022/08/14 09:59:54;;;;;;;7.60;3.90;;;;;;;29.05;50.80;99138.83;1771136;80;21060;-74
2022/08/14 10:02:30;;;;;;;10.55;3.92;;;;;;;29.14;50.28;99141.81;1771327;81;21080;-74
2022/08/14 10:05:09;;;;;;;4.15;3.52;;;;;;;29.18;49.32;99136.38;1771594;81;21091;-74
2022/08/14 10:07:50;;;;;;;5.08;3.70;;;;;;;29.22;49.41;99135.53;1771632;80;21104;-73
2022/08/14 10:10:37;;;;;;;8.58;3.70;;;;;;;29.23;49.08;99133.13;1771779;80;21089;-74
2022/08/14 10:13:05;;;;;;;6.17;3.70;;;;;;;29.22;48.62;99134.17;1771360;80;21536;-74
2022/08/14 10:15:40;;;;;;;4.30;3.80;;;;;;;29.13;48.44;99138.77;1771210;80;21056;-73
2022/08/14 10:18:12;;;;;;;6.97;3.80;;;;;;;29.07;48.69;99146.28;1770937;81;21072;-74
2022/08/14 10:20:54;;;;;;;5.00;3.45;;;;;;;28.96;48.35;99139.41;1771579;81;21662;-73
2022/08/14 10:23:22;;;;;;;6.17;3.58;;;;;;;28.85;48.05;99139.83;1771584;80;21778;-73
2022/08/14 10:25:51;;;;;;;6.58;3.33;;;;;;;28.73;48.11;99139.41;1771558;80;20998;-74
2022/08/14 10:28:19;;;;;;;5.58;3.47;;;;;;;28.59;48.71;99136.95;1771255;80;21021;-74
2022/08/14 10:30:51;;;;;;;10.75;3.30;;;;;;;28.59;49.80;99141.55;1771796;81;21092;-74
2022/08/14 10:33:30;;;;;;;4.05;3.65;;;;;;;28.63;49.98;99136.95;1770980;81;21001;-74
2022/08/14 10:36:02;;;;;;;3.80;3.50;;;;;;;28.72;50.89;99145.86;1771550;81;21088;-74
2022/08/14 10:38:32;;;;;;;7.65;3.80;;;;;;;28.88;50.80;99143.05;1771197;81;21024;-75
2022/08/14 10:41:16;;;;;;;9.88;3.95;;;;;;;29.03;49.45;99144.95;1771676;81;21006;-74
2022/08/14 10:43:44;;;;;;;4.45;3.35;;;;;;;29.10;48.27;99143.19;1771451;81;21057;-74
2022/08/14 10:46:16;;;;;;;5.70;4.03;;;;;;;29.16;47.77;99139.76;1771369;81;21586;-73
2022/08/14 10:48:59;;;;;;;4.80;3.42;;;;;;;29.22;48.52;99139.07;1771765;81;21406;-74
2022/08/14 10:51:27;;;;;;;7.22;3.50;;;;;;;29.32;48.41;99146.95;1771271;80;21021;-74
2022/08/14 10:53:55;;;;;;;6.47;3.47;;;;;;;29.45;48.14;99142.23;1771441;81;21052;-75
2022/08/14 10:56:32;;;;;;;6.22;3.40;;;;;;;29.58;48.21;99142.44;1771268;81;22226;-74
2022/08/14 10:59:04;;;;;;;9.43;3.52;;;;;;;29.75;48.22;99139.56;1771788;81;21044;-73
2022/08/14 11:01:38;;;;;;;7.28;3.35;;;;;;;29.85;47.04;99138.80;1771397;81;21117;-73
2022/08/14 11:04:05;;;;;;;5.33;3.70;;;;;;;29.88;46.82;99129.46;1771755;81;21061;-75
2022/08/14 11:06:32;;;;;;;6.37;3.55;;;;;;;29.88;46.82;99129.46;1771324;80;21048;-74
2022/08/14 11:08:58;;;;;;;4.92;3.40;;;;;;;29.98;47.65;99134.91;1771566;81;21024;-74
2022/08/14 11:11:28;;;;;;;5.65;3.50;;;;;;;30.05;46.69;99133.65;1741157;81;21670;-74
2022/08/14 11:13:56;;;;;;;4.80;3.62;;;;;;;30.06;46.38;99126.34;1771418;81;21124;-73
2022/08/14 11:16:24;;;;;;;6.78;3.60;;;;;;;29.97;44.89;99131.03;1774798;80;21048;-74
2022/08/14 11:18:51;;;;;;;16.70;3.70;;;;;;;29.85;45.46;99125.23;1776621;80;21025;-74
2022/08/14 11:21:21;;;;;;;5.40;3.37;;;;;;;29.85;45.56;99124.41;1748251;80;20998;-75
2022/08/14 11:23:51;;;;;;;7.03;3.62;;;;;;;29.78;46.15;99129.73;1777234;80;21072;-74
2022/08/14 11:26:18;;;;;;;9.75;3.75;;;;;;;29.76;46.67;99129.05;1776831;80;21237;-74
2022/08/14 11:28:47;;;;;;;9.00;3.22;;;;;;;29.77;46.26;99126.69;1776978;80;21040;-75
2022/08/14 11:31:15;;;;;;;6.62;3.50;;;;;;;29.81;46.57;99126.13;1777113;80;21517;-74
2022/08/14 11:33:42;;;;;;;3.98;3.17;;;;;;;29.92;47.44;99127.52;1777319;80;21199;-74
2022/08/14 11:36:10;;;;;;;6.22;3.50;;;;;;;30.04;46.93;99115.67;1776984;80;21084;-73
2022/08/14 11:38:42;;;;;;;7.37;3.47;;;;;;;30.12;46.42;99118.81;1799932;78;21474;-73
2022/08/14 11:41:09;;;;;;;6.15;3.45;;;;;;;30.15;46.15;99121.16;1803425;79;20973;-74
2022/08/14 11:43:42;;;;;;;3.60;3.20;;;;;;;30.24;46.34;99118.64;1812909;79;20956;-74
2022/08/14 11:46:09;;;;;;;3.72;3.35;;;;;;;30.35;45.75;99123.59;1786665;80;21098;-74
2022/08/14 11:48:51;;;;;;;5.67;3.20;;;;;;;30.46;45.10;99121.44;1812830;79;21030;-73
2022/08/14 11:51:22;;;;;;;8.05;3.33;;;;;;;30.55;45.41;99124.37;1787415;80;21110;-74
2022/08/14 11:53:55;;;;;;;13.22;3.12;;;;;;;30.62;44.84;99136.14;1812846;78;21011;-73
2022/08/14 11:56:22;;;;;;;9.13;3.42;;;;;;;30.65;45.26;99134.89;1787245;80;21062;-74